Главная страница
METAR-TAF:

METAR-TAF

Аэропорты :

Хартум, Судан

широта: 15-36N, долгота: 032-33E, высота над уровнем моря: 382 м

Текущие метеонаблюдения

Эта сводка был подготовлена 23 минут назад, в 12:00 UTC
Ветер 9 Узел от северный
Температура 31°C
Влажность 11%
Давление 1012 hPa
Видимость 10 км и более
Нет облачности ниже 1500 м, и нет кучево-дождевой облачности

METAR: HSSS 221200Z 36009KT CAVOK 31/M03 Q1012 NOSIG

Время: 15:23 (12:23 UTC)

Прогноз

Эта сводка был подготовлена 1 час и 23 минут назад, в 11:00 UTC
Прогноз действительный с 22-го 12 UTC до 23-го 18 UTC
Ветер 14 Узел от северный с порывами до 24 Узел
Видимость: 8000 м
Вероятность 30% :
временами
С 22-го 20 UTC до 23-го 06 UTC
Ветер 20 Узел от северно-северо-западный с порывами до 40 Узел
Видимость: 3000 м
Низовая песчаная метель
временами
С 23-го 06 UTC до 23-го 10 UTC
Видимость: 6000 м

TAF: HSSS 221100Z 2212/2318 36014G24KT 8000 NSW PROB30 TEMPO 2220/2306 33020G40KT 3000 BLSA TEMPO 2306/2310 6000

Метеонаблюдения и прогнозы для более 4000 аэропортов (сводки METAR и TAF).

Имеющиеся станции представлены на карте желтыми и красными точками.

Чтобы увидеть название станции, наведите на нее мышь.

Затем щелкните, чтобы увидеть метеонаблюдения и метеопрогнозы.

Управление картой: чтобы увеличить масштаб, щелкните зеленые кнопки с черным крестиком; чтобы уменьшить масштаб, щелкните зеленую кнопку с тире; для просмотра соседних карт щелкайте зеленые стрелки.


METAR-TAF: